Time;durP1;ratioP1;P1;durP2;ratioP2;P2;SDS_P1;SDS_P2;PMS_P1;PMS_P2;Temp;Humidity;BMP_temperature;BMP_pressure;BME280_temperature;BME280_humidity;BME280_pressure;Samples;Min_cycle;Max_cycle;Signal;HPM_P1;HPM_P2
2022/11/08 01:53:44;;;;;;;16.77;11.10;;;15.60;99.90;;;;;;4589223;19;20007;-23
2022/11/08 01:55:25;;;;;;;15.07;13.00;;;15.50;99.90;;;;;;4589433;19;20011;-22
2022/11/08 01:56:57;;;;;;;17.98;13.13;;;14.30;99.90;;;;;;4588470;19;20011;-23
2022/11/08 01:58:30;;;;;;;17.35;12.95;;;13.50;99.90;;;;;;4589292;19;20011;-25
2022/11/08 02:00:05;;;;;;;16.57;12.97;;;13.20;99.90;;;;;;4593792;19;20024;-24
2022/11/08 02:01:37;;;;;;;15.70;12.73;;;13.00;99.90;;;;;;4593856;19;20039;-23
2022/11/08 02:13:56;;;;;;;17.47;13.33;;;12.80;99.90;;;;;;4593613;19;20437;-23
2022/11/08 02:15:30;;;;;;;19.50;14.67;;;12.80;99.90;;;;;;4593735;19;20464;-26
2022/11/08 02:17:01;;;;;;;17.80;13.77;;;12.80;99.90;;;;;;4593877;19;20472;-23
2022/11/08 02:18:32;;;;;;;15.95;12.65;;;12.80;99.90;;;;;;4594413;19;20022;-23
2022/11/08 02:20:04;;;;;;;16.17;12.77;;;12.80;99.90;;;;;;4594174;19;20011;-25
2022/11/08 02:21:40;;;;;;;17.80;13.67;;;12.80;99.90;;;;;;4594361;19;20082;-23
2022/11/08 02:23:16;;;;;;;16.63;13.47;;;12.80;99.90;;;;;;4594088;19;20488;-23
2022/11/08 02:25:06;;;;;;;19.67;13.77;;;12.70;99.90;;;;;;4591788;19;21160;-23
2022/11/08 02:26:37;;;;;;;19.17;14.10;;;12.70;99.90;;;;;;4592624;19;20092;-22
2022/11/08 02:28:08;;;;;;;19.70;15.25;;;12.70;99.90;;;;;;4594138;19;20433;-22
2022/11/08 02:29:39;;;;;;;19.35;14.07;;;12.90;99.90;;;;;;4594146;19;20038;-21
2022/11/08 02:31:11;;;;;;;17.98;13.15;;;13.30;99.90;;;;;;4595296;19;20014;-22
2022/11/08 02:32:42;;;;;;;18.03;12.00;;;13.70;99.90;;;;;;4594128;19;20029;-22
2022/11/08 02:34:14;;;;;;;15.93;10.77;;;13.90;99.90;;;;;;4595467;19;20015;-23
2022/11/08 02:35:49;;;;;;;13.65;10.63;;;14.10;99.90;;;;;;4593065;19;20471;-22
2022/11/08 02:37:20;;;;;;;17.00;11.40;;;14.30;99.90;;;;;;4593237;19;20022;-24
2022/11/08 02:38:53;;;;;;;16.38;11.60;;;14.40;99.90;;;;;;4594995;19;20078;-22
2022/11/08 02:40:24;;;;;;;16.50;10.63;;;14.50;99.90;;;;;;4593500;19;20018;-25
2022/11/08 02:41:55;;;;;;;14.23;10.48;;;14.60;99.90;;;;;;4592415;19;20503;-23
2022/11/08 02:43:26;;;;;;;15.23;10.05;;;14.60;99.90;;;;;;4593698;19;20007;-24
2022/11/08 02:44:58;;;;;;;15.40;11.70;;;14.70;99.90;;;;;;4594060;19;20482;-23
2022/11/08 02:46:29;;;;;;;14.35;10.88;;;14.80;99.90;;;;;;4594902;19;20110;-23
2022/11/08 02:48:00;;;;;;;14.82;11.13;;;14.80;99.90;;;;;;4591945;19;20046;-21
2022/11/08 02:49:31;;;;;;;17.05;11.15;;;14.80;99.90;;;;;;4593165;19;20019;-24
2022/11/08 02:51:02;;;;;;;14.98;10.68;;;14.90;99.90;;;;;;4595154;19;20037;-22
2022/11/08 02:52:33;;;;;;;16.33;11.48;;;14.90;99.90;;;;;;4591359;19;20018;-22
2022/11/08 02:54:04;;;;;;;17.30;11.10;;;14.90;99.90;;;;;;4593034;19;20019;-22
2022/11/08 02:55:35;;;;;;;14.68;11.18;;;15.00;99.90;;;;;;4594709;19;20034;-22
2022/11/08 02:57:07;;;;;;;11.70;9.40;;;15.00;99.90;;;;;;4592988;19;20456;-25
2022/11/08 02:58:38;;;;;;;12.80;9.80;;;15.00;99.90;;;;;;4593375;19;20016;-22
2022/11/08 03:00:10;;;;;;;15.23;10.57;;;15.00;99.90;;;;;;4594496;19;20039;-26
2022/11/08 03:01:40;;;;;;;;;;;15.00;99.90;;;;;;4593483;19;20487;-22
2022/11/08 03:03:12;;;;;;;13.70;10.45;;;15.10;99.90;;;;;;4592843;19;20249;-22
2022/11/08 03:04:43;;;;;;;14.63;11.20;;;15.10;99.90;;;;;;4593970;19;20345;-25
2022/11/08 03:06:14;;;;;;;14.77;11.00;;;15.10;99.90;;;;;;4594026;19;20118;-23
2022/11/08 03:07:46;;;;;;;15.85;12.10;;;15.10;99.90;;;;;;4593932;19;20010;-23
2022/11/08 03:09:17;;;;;;;15.23;11.50;;;15.10;99.90;;;;;;4591609;19;20111;-23
2022/11/08 03:10:48;;;;;;;12.77;10.30;;;15.10;99.90;;;;;;4591310;19;20015;-23
2022/11/08 03:12:19;;;;;;;15.20;9.55;;;15.10;99.90;;;;;;4590932;19;20014;-25
2022/11/08 03:13:50;;;;;;;12.38;9.68;;;15.20;99.90;;;;;;4592713;19;20015;-26
2022/11/08 03:15:22;;;;;;;16.00;11.25;;;15.20;99.90;;;;;;4592487;19;19999;-23
2022/11/08 03:16:53;;;;;;;15.68;10.88;;;15.20;99.90;;;;;;4592068;19;20006;-22
2022/11/08 03:18:24;;;;;;;12.55;9.95;;;15.20;99.90;;;;;;4592180;19;20391;-24
2022/11/08 03:19:55;;;;;;;15.10;10.63;;;15.20;99.90;;;;;;4592314;19;20022;-24
2022/11/08 03:21:26;;;;;;;13.60;9.52;;;15.20;99.90;;;;;;4592797;19;20483;-22
2022/11/08 03:22:58;;;;;;;12.82;10.52;;;15.20;99.90;;;;;;4591946;19;20349;-24
2022/11/08 03:24:29;;;;;;;14.98;10.77;;;15.20;99.90;;;;;;4592279;19;20049;-24
2022/11/08 03:26:01;;;;;;;14.88;11.02;;;15.20;99.90;;;;;;4592769;19;20041;-25
2022/11/08 03:27:33;;;;;;;15.90;11.10;;;15.30;99.90;;;;;;4592203;19;20017;-26
2022/11/08 03:29:04;;;;;;;16.80;11.25;;;15.30;99.90;;;;;;4591552;19;20014;-25
2022/11/08 03:30:35;;;;;;;15.25;10.70;;;15.30;99.90;;;;;;4591880;19;20104;-24
2022/11/08 03:32:06;;;;;;;16.15;10.45;;;15.30;99.90;;;;;;4590342;19;20015;-23
2022/11/08 03:33:37;;;;;;;14.30;10.25;;;15.30;99.90;;;;;;4591734;19;20034;-27
2022/11/08 03:35:08;;;;;;;13.15;10.52;;;15.40;99.90;;;;;;4590570;19;20063;-22
2022/11/08 03:36:40;;;;;;;12.23;10.00;;;15.40;99.90;;;;;;4589982;19;20015;-23
2022/11/08 03:38:11;;;;;;;15.50;9.95;;;15.40;99.90;;;;;;4592096;19;20015;-23
2022/11/08 03:39:42;;;;;;;14.10;9.45;;;15.40;99.90;;;;;;4590428;19;20019;-26
2022/11/08 03:41:13;;;;;;;12.85;9.68;;;15.50;99.90;;;;;;4591699;19;20010;-23
2022/11/08 03:42:44;;;;;;;13.57;9.73;;;15.40;99.90;;;;;;4591878;19;20018;-22
2022/11/08 03:44:15;;;;;;;13.40;9.95;;;15.50;99.90;;;;;;4592933;19;20495;-23
2022/11/08 03:45:46;;;;;;;12.65;9.40;;;15.50;99.90;;;;;;4593028;19;20362;-23
2022/11/08 03:47:17;;;;;;;13.63;9.68;;;15.50;99.90;;;;;;4590218;19;20020;-22
2022/11/08 03:48:48;;;;;;;13.73;10.07;;;15.50;99.90;;;;;;4589803;19;20346;-22
2022/11/08 03:50:19;;;;;;;12.57;9.88;;;15.50;99.90;;;;;;4591454;19;20011;-23
2022/11/08 03:51:54;;;;;;;11.68;9.38;;;15.50;99.90;;;;;;4590535;19;20370;-22
2022/11/08 03:53:25;;;;;;;12.82;9.38;;;15.50;99.90;;;;;;4591479;19;20472;-23
2022/11/08 03:54:56;;;;;;;11.93;8.65;;;15.50;99.90;;;;;;4592042;19;20022;-23
2022/11/08 03:56:27;;;;;;;12.27;9.43;;;15.50;99.90;;;;;;4591164;19;20017;-23
2022/11/08 03:57:59;;;;;;;11.55;8.85;;;15.50;99.90;;;;;;4591664;19;20074;-24
2022/11/08 03:59:30;;;;;;;13.23;9.57;;;15.50;99.90;;;;;;4592114;19;20010;-22
2022/11/08 04:01:04;;;;;;;12.77;9.38;;;15.50;99.90;;;;;;4592771;19;20022;-24
2022/11/08 04:02:35;;;;;;;11.35;9.00;;;15.50;99.90;;;;;;4590552;19;20014;-23
2022/11/08 04:04:07;;;;;;;14.57;9.65;;;15.50;99.90;;;;;;4590471;19;20090;-22
2022/11/08 04:05:38;;;;;;;13.25;9.80;;;15.50;99.90;;;;;;4590679;19;20003;-24
2022/11/08 04:07:09;;;;;;;14.13;9.10;;;15.50;99.90;;;;;;4590987;19;20017;-23
2022/11/08 04:08:40;;;;;;;13.50;9.38;;;15.50;99.90;;;;;;4590996;19;20011;-23
2022/11/08 04:10:12;;;;;;;12.57;8.90;;;15.50;99.90;;;;;;4591439;19;20006;-24
2022/11/08 04:15:22;;;;;;;14.55;9.65;;;15.50;99.90;;;;;;4590572;19;20018;-24
2022/11/08 04:16:54;;;;;;;14.13;9.40;;;15.50;99.90;;;;;;4589653;19;20014;-23
2022/11/08 04:22:04;;;;;;;11.07;8.90;;;15.50;99.90;;;;;;4589461;19;20006;-22
2022/11/08 04:23:35;;;;;;;12.70;9.48;;;15.50;99.90;;;;;;4589564;19;20038;-24
2022/11/08 04:25:07;;;;;;;12.90;10.00;;;15.50;99.90;;;;;;4590049;19;20014;-23
2022/11/08 04:26:39;;;;;;;;;;;15.50;99.90;;;;;;4594024;19;20018;-23
2022/11/08 04:28:10;;;;;;;11.48;8.93;;;15.50;99.90;;;;;;4590515;19;19914;-24
2022/11/08 04:29:41;;;;;;;12.65;9.82;;;15.50;99.90;;;;;;4589650;19;20014;-23
2022/11/08 04:33:23;;;;;;;12.48;9.27;;;15.50;99.90;;;;;;4591220;19;20013;-23
2022/11/08 04:34:54;;;;;;;11.10;9.40;;;15.50;99.90;;;;;;4589407;19;20367;-25
2022/11/08 04:36:25;;;;;;;12.68;9.23;;;15.50;99.90;;;;;;4589889;19;20014;-23
2022/11/08 04:37:59;;;;;;;12.50;9.10;;;15.50;99.90;;;;;;4590673;19;20010;-24
2022/11/08 04:39:31;;;;;;;11.18;9.15;;;15.50;99.90;;;;;;4589351;19;20006;-23
2022/11/08 04:41:12;;;;;;;11.48;9.10;;;15.50;99.90;;;;;;4589679;19;20029;-23
2022/11/08 04:42:43;;;;;;;10.10;8.80;;;15.50;99.90;;;;;;4589055;19;20354;-23
2022/11/08 04:44:17;;;;;;;;;;;15.50;99.90;;;;;;4592743;19;20014;-22
2022/11/08 04:45:48;;;;;;;16.05;9.80;;;15.50;99.90;;;;;;4590763;19;19925;-23
2022/11/08 04:47:19;;;;;;;14.82;10.98;;;15.50;99.90;;;;;;4588559;19;20010;-24
2022/11/08 04:48:52;;;;;;;16.55;10.23;;;15.50;99.90;;;;;;4588891;19;20034;-22
2022/11/08 04:50:23;;;;;;;13.00;9.95;;;15.50;99.90;;;;;;4588867;19;20002;-23
2022/11/08 04:51:54;;;;;;;11.48;9.70;;;15.50;99.90;;;;;;4589462;19;20330;-22
2022/11/08 04:53:25;;;;;;;11.40;8.63;;;15.50;99.90;;;;;;4590750;19;20003;-23
2022/11/08 04:54:56;;;;;;;12.32;9.15;;;15.50;99.90;;;;;;4592564;19;20022;-23
2022/11/08 04:56:28;;;;;;;14.63;8.95;;;15.50;99.90;;;;;;4590331;19;20027;-23
2022/11/08 04:57:59;;;;;;;10.77;8.75;;;15.50;99.90;;;;;;4589812;19;19999;-23
2022/11/08 04:59:30;;;;;;;13.50;10.65;;;15.50;99.90;;;;;;4590968;19;20436;-23
2022/11/08 05:01:03;;;;;;;12.68;9.00;;;15.50;99.90;;;;;;4588990;19;20026;-25
2022/11/08 05:02:34;;;;;;;11.52;8.85;;;15.50;99.90;;;;;;4589556;19;20394;-25
2022/11/08 05:04:05;;;;;;;11.68;9.07;;;15.50;99.90;;;;;;4590298;19;20022;-24
2022/11/08 05:05:36;;;;;;;12.70;8.77;;;15.50;99.90;;;;;;4589787;19;20029;-24
2022/11/08 05:07:07;;;;;;;12.48;8.52;;;15.50;99.90;;;;;;4588655;19;20043;-23
2022/11/08 05:08:38;;;;;;;12.63;8.63;;;15.50;99.90;;;;;;4590041;19;20006;-24
2022/11/08 05:10:09;;;;;;;10.90;8.45;;;15.50;99.90;;;;;;4588823;19;20425;-23
2022/11/08 05:11:40;;;;;;;11.05;8.77;;;15.50;99.90;;;;;;4588862;19;20018;-23
2022/11/08 05:13:12;;;;;;;11.55;8.95;;;15.50;99.90;;;;;;4589854;19;20015;-23
2022/11/08 05:14:43;;;;;;;11.38;8.65;;;15.50;99.90;;;;;;4590273;19;20002;-22
2022/11/08 05:16:19;;;;;;;14.20;9.32;;;15.50;99.90;;;;;;4588731;19;20018;-22
2022/11/08 05:17:50;;;;;;;11.25;8.32;;;15.50;99.90;;;;;;4588485;19;20023;-22
2022/11/08 05:23:25;;;;;;;13.35;8.55;;;15.50;99.90;;;;;;4589085;19;20480;-22
2022/11/08 05:24:56;;;;;;;12.57;8.30;;;15.50;99.90;;;;;;4587919;19;20035;-23
2022/11/08 05:26:27;;;;;;;11.98;8.30;;;15.50;99.90;;;;;;4587158;19;20018;-23
2022/11/08 05:27:58;;;;;;;11.27;8.52;;;15.50;99.90;;;;;;4587170;19;20015;-22
2022/11/08 05:29:29;;;;;;;11.90;9.13;;;15.50;99.90;;;;;;4587928;19;20017;-22
2022/11/08 05:31:01;;;;;;;14.60;8.57;;;15.50;99.90;;;;;;4587840;19;20478;-25
2022/11/08 05:32:32;;;;;;;10.55;8.35;;;15.50;99.90;;;;;;4586149;19;20045;-22
2022/11/08 05:34:03;;;;;;;10.65;7.55;;;15.50;99.90;;;;;;4589365;19;20066;-23
2022/11/08 05:35:34;;;;;;;13.90;9.05;;;15.50;99.90;;;;;;4592316;19;20007;-23
2022/11/08 05:37:06;;;;;;;11.57;8.32;;;15.50;99.90;;;;;;4591894;19;20015;-22
2022/11/08 05:38:37;;;;;;;11.98;8.07;;;15.50;99.90;;;;;;4591704;19;20094;-25
2022/11/08 05:40:09;;;;;;;11.68;8.93;;;15.50;99.90;;;;;;4591746;19;20010;-24
2022/11/08 05:41:40;;;;;;;12.02;8.18;;;15.50;99.90;;;;;;4592229;19;20018;-24
2022/11/08 05:43:11;;;;;;;12.48;8.25;;;15.50;99.90;;;;;;4593177;19;20038;-23
2022/11/08 05:44:43;;;;;;;13.10;8.75;;;15.50;99.90;;;;;;4591939;19;20018;-22
2022/11/08 05:46:14;;;;;;;10.90;8.48;;;15.50;99.90;;;;;;4591126;19;20030;-23
2022/11/08 05:47:46;;;;;;;12.20;8.13;;;15.50;99.90;;;;;;4591380;19;20508;-23
2022/11/08 05:49:17;;;;;;;10.65;7.78;;;15.50;99.90;;;;;;4591903;19;20014;-23
2022/11/08 05:50:48;;;;;;;10.93;8.02;;;15.50;99.90;;;;;;4592807;19;20014;-26
2022/11/08 05:52:20;;;;;;;9.57;8.50;;;15.50;99.90;;;;;;4590229;19;20050;-24
2022/11/08 05:53:51;;;;;;;11.35;8.38;;;15.50;99.90;;;;;;4593197;19;20011;-23
2022/11/08 05:55:22;;;;;;;13.30;8.75;;;15.50;99.90;;;;;;4588727;19;20022;-23
2022/11/08 05:56:53;;;;;;;13.32;8.70;;;15.50;99.90;;;;;;4591542;19;20091;-24
2022/11/08 05:58:25;;;;;;;13.07;8.38;;;15.50;99.90;;;;;;4592144;19;20356;-24
2022/11/08 05:59:56;;;;;;;12.38;7.80;;;15.50;99.90;;;;;;4592706;19;20502;-23
2022/11/08 06:01:27;;;;;;;11.65;7.63;;;15.50;99.90;;;;;;4593265;19;20015;-23
2022/11/08 06:03:00;;;;;;;10.75;8.35;;;15.50;99.90;;;;;;4594054;19;20472;-23
2022/11/08 06:04:31;;;;;;;12.25;8.32;;;15.50;99.90;;;;;;4593830;19;20014;-25
2022/11/08 06:06:07;;;;;;;11.77;7.93;;;15.50;99.90;;;;;;4592159;19;20015;-23
2022/11/08 06:07:38;;;;;;;11.98;8.55;;;15.50;99.90;;;;;;4593156;19;20027;-22
2022/11/08 06:09:09;;;;;;;11.90;7.88;;;15.50;99.90;;;;;;4593871;19;20010;-23
2022/11/08 06:10:40;;;;;;;10.85;8.05;;;15.50;99.90;;;;;;4593684;19;20014;-23
2022/11/08 06:12:11;;;;;;;10.27;8.15;;;15.50;99.90;;;;;;4592327;19;20011;-24
2022/11/08 06:13:43;;;;;;;10.52;8.30;;;15.50;99.90;;;;;;4593863;19;20011;-23
2022/11/08 06:15:14;;;;;;;11.18;7.70;;;15.50;99.90;;;;;;4593632;19;20027;-24
2022/11/08 06:16:45;;;;;;;10.30;8.05;;;15.50;99.90;;;;;;4592651;19;20002;-24
2022/11/08 06:18:16;;;;;;;9.80;7.80;;;15.50;99.90;;;;;;4592830;19;20019;-24
2022/11/08 06:19:47;;;;;;;9.35;7.72;;;15.50;99.90;;;;;;4593310;19;20018;-26
2022/11/08 06:21:19;;;;;;;10.35;7.65;;;15.50;99.90;;;;;;4593665;19;20030;-22
2022/11/08 06:22:50;;;;;;;10.45;7.57;;;15.50;99.90;;;;;;4592505;19;20007;-24
2022/11/08 06:24:21;;;;;;;12.02;8.45;;;15.50;99.90;;;;;;4592834;19;20011;-26
2022/11/08 06:25:52;;;;;;;9.25;7.57;;;15.50;99.90;;;;;;4593516;19;20014;-23
2022/11/08 06:27:24;;;;;;;10.88;7.45;;;15.50;99.90;;;;;;4593811;19;20002;-23
2022/11/08 06:28:55;;;;;;;9.02;6.85;;;15.50;99.90;;;;;;4591848;19;20484;-23
2022/11/08 06:30:26;;;;;;;10.55;7.47;;;15.50;99.90;;;;;;4592521;19;20026;-23
2022/11/08 06:31:57;;;;;;;9.00;7.10;;;15.50;99.90;;;;;;4592892;19;20100;-24
2022/11/08 06:33:28;;;;;;;11.73;7.55;;;15.50;99.90;;;;;;4593563;19;20015;-23
2022/11/08 06:35:00;;;;;;;10.30;7.68;;;15.50;99.90;;;;;;4592808;19;20043;-24
2022/11/08 06:36:31;;;;;;;9.45;6.97;;;15.50;99.90;;;;;;4592885;19;20343;-23
2022/11/08 06:38:02;;;;;;;10.40;7.80;;;15.50;99.90;;;;;;4591676;19;20014;-23
2022/11/08 06:39:33;;;;;;;11.50;7.68;;;15.50;99.90;;;;;;4592896;19;20006;-23
2022/11/08 06:41:04;;;;;;;10.50;7.47;;;15.60;99.90;;;;;;4592680;19;20476;-23
2022/11/08 06:42:36;;;;;;;10.77;7.35;;;15.50;99.90;;;;;;4590169;19;20021;-23
2022/11/08 06:44:07;;;;;;;11.88;8.32;;;15.50;99.90;;;;;;4593433;19;20333;-23
2022/11/08 06:45:38;;;;;;;9.77;7.28;;;15.60;99.90;;;;;;4591804;19;20495;-23
2022/11/08 06:47:09;;;;;;;11.02;6.93;;;15.50;99.90;;;;;;4592962;19;20396;-25
2022/11/08 06:48:40;;;;;;;9.88;7.60;;;15.50;99.90;;;;;;4591561;19;20021;-23
2022/11/08 06:50:12;;;;;;;10.85;7.30;;;15.50;99.90;;;;;;4592015;19;20018;-23
2022/11/08 06:51:43;;;;;;;14.13;7.80;;;15.50;99.90;;;;;;4591949;19;20389;-23
2022/11/08 06:53:14;;;;;;;9.80;6.72;;;15.50;99.90;;;;;;4592476;19;20098;-24
2022/11/08 06:54:45;;;;;;;11.00;7.72;;;15.60;99.90;;;;;;4592981;19;20017;-24
2022/11/08 06:56:16;;;;;;;11.07;7.22;;;15.50;99.90;;;;;;4592754;19;20018;-23
2022/11/08 06:57:48;;;;;;;9.73;7.18;;;15.50;99.90;;;;;;4592483;19;20074;-22
2022/11/08 06:59:19;;;;;;;9.10;6.75;;;15.50;99.90;;;;;;4592796;19;20018;-23
2022/11/08 07:00:52;;;;;;;11.93;7.75;;;15.50;99.90;;;;;;4592264;19;20014;-24
2022/11/08 07:02:23;;;;;;;11.88;7.55;;;15.50;99.90;;;;;;4592796;19;20078;-25
2022/11/08 07:03:55;;;;;;;13.25;7.63;;;15.50;99.90;;;;;;4592579;19;20027;-24
2022/11/08 07:05:26;;;;;;;8.63;6.80;;;15.50;99.90;;;;;;4592739;19;20011;-24
2022/11/08 07:06:57;;;;;;;10.75;8.15;;;15.50;99.90;;;;;;4593039;19;20038;-25
2022/11/08 07:08:29;;;;;;;10.48;7.57;;;15.50;99.90;;;;;;4592169;19;20018;-24
2022/11/08 07:10:00;;;;;;;;;;;15.60;99.90;;;;;;4591902;19;20060;-26
2022/11/08 07:11:31;;;;;;;9.55;7.10;;;15.50;99.90;;;;;;4591417;19;19976;-24
2022/11/08 07:13:03;;;;;;;10.07;6.75;;;15.60;99.90;;;;;;4592088;19;20038;-25
2022/11/08 07:14:34;;;;;;;;;;;15.60;99.90;;;;;;4592841;19;20460;-24
2022/11/08 07:16:05;;;;;;;12.05;6.93;;;15.70;99.90;;;;;;4592289;19;19939;-25
2022/11/08 07:17:36;;;;;;;10.55;7.40;;;15.70;99.90;;;;;;4591783;19;20472;-27
2022/11/08 07:19:07;;;;;;;11.35;7.22;;;15.80;99.90;;;;;;4592271;19;20495;-26
2022/11/08 07:20:39;;;;;;;13.20;7.57;;;15.90;99.90;;;;;;4591774;19;20014;-24
2022/11/08 07:22:09;;;;;;;8.43;6.85;;;15.90;99.90;;;;;;4593091;19;20018;-25
2022/11/08 07:23:41;;;;;;;9.20;7.55;;;16.00;99.90;;;;;;4593957;19;20022;-26
2022/11/08 07:25:12;;;;;;;9.45;6.95;;;16.00;99.90;;;;;;4593397;19;20362;-24
2022/11/08 07:26:43;;;;;;;11.65;7.15;;;16.00;99.90;;;;;;4591777;19;20434;-25
2022/11/08 07:28:16;;;;;;;11.65;6.57;;;16.00;99.90;;;;;;4592038;19;20025;-24
2022/11/08 07:29:47;;;;;;;13.02;7.57;;;16.00;99.90;;;;;;4591460;19;20039;-24
2022/11/08 07:31:18;;;;;;;9.68;7.28;;;16.00;99.90;;;;;;4593301;19;20071;-23
2022/11/08 07:32:50;;;;;;;9.80;7.10;;;16.00;99.90;;;;;;4592068;19;20015;-25
2022/11/08 07:34:22;;;;;;;10.32;7.32;;;16.00;99.90;;;;;;4592294;19;20003;-25
2022/11/08 07:35:53;;;;;;;11.48;7.25;;;16.00;99.90;;;;;;4591073;19;20047;-25
2022/11/08 07:37:24;;;;;;;11.00;7.28;;;16.00;99.90;;;;;;4591827;19;20017;-23
2022/11/08 07:38:56;;;;;;;9.40;7.05;;;16.10;99.90;;;;;;4592088;19;20014;-24
2022/11/08 07:40:27;;;;;;;10.23;7.15;;;16.10;99.90;;;;;;4591847;19;20006;-26
2022/11/08 07:41:58;;;;;;;10.75;7.30;;;16.00;99.90;;;;;;4590472;19;20011;-27
2022/11/08 07:43:29;;;;;;;12.15;8.43;;;16.00;99.90;;;;;;4590854;19;20478;-25
2022/11/08 07:45:00;;;;;;;9.77;6.93;;;16.10;99.90;;;;;;4591845;19;20019;-24
2022/11/08 07:46:31;;;;;;;8.73;6.93;;;16.10;99.90;;;;;;4591050;19;20360;-28
2022/11/08 07:48:04;;;;;;;9.05;7.03;;;16.10;99.90;;;;;;4590803;19;20017;-27
2022/11/08 07:49:36;;;;;;;9.68;7.55;;;16.10;99.90;;;;;;4591442;19;20017;-24
2022/11/08 07:51:07;;;;;;;10.07;7.47;;;16.10;99.90;;;;;;4591882;19;20003;-24
2022/11/08 07:52:38;;;;;;;8.95;6.78;;;16.10;99.90;;;;;;4590603;19;20011;-24
2022/11/08 07:54:09;;;;;;;9.68;6.90;;;16.00;99.90;;;;;;4590082;19;20011;-24
2022/11/08 07:55:40;;;;;;;10.10;6.75;;;16.10;99.90;;;;;;4590831;19;20018;-24
2022/11/08 07:57:12;;;;;;;9.05;6.45;;;16.10;99.90;;;;;;4589592;19;20096;-24
2022/11/08 07:58:43;;;;;;;11.02;7.30;;;16.10;99.90;;;;;;4591494;19;20472;-24
2022/11/08 08:00:14;;;;;;;8.73;7.30;;;16.20;99.90;;;;;;4591228;19;20007;-24
2022/11/08 08:01:45;;;;;;;8.60;6.55;;;16.20;99.90;;;;;;4590234;19;20014;-28
2022/11/08 08:03:17;;;;;;;;;;;16.30;99.90;;;;;;4591505;19;20500;-24
2022/11/08 08:04:48;;;;;;;10.23;7.03;;;16.30;99.90;;;;;;4591022;19;19919;-26
2022/11/08 08:06:19;;;;;;;10.27;6.22;;;16.30;99.90;;;;;;4591293;19;20018;-27
2022/11/08 08:07:50;;;;;;;9.30;7.30;;;16.30;99.90;;;;;;4591205;19;20373;-24
2022/11/08 08:09:21;;;;;;;9.02;6.40;;;16.30;99.90;;;;;;4590109;19;20006;-24
2022/11/08 08:10:56;;;;;;;9.07;6.80;;;16.40;99.90;;;;;;4590668;19;20007;-24
2022/11/08 08:12:27;;;;;;;9.02;6.45;;;16.30;99.90;;;;;;4589830;19;20048;-26
2022/11/08 08:13:58;;;;;;;9.95;7.15;;;16.40;99.90;;;;;;4590683;19;20090;-24
2022/11/08 08:15:29;;;;;;;7.78;5.70;;;16.40;99.90;;;;;;4592877;19;20019;-24
2022/11/08 08:17:00;;;;;;;9.27;6.68;;;16.40;99.90;;;;;;4590917;19;20006;-24
2022/11/08 08:18:31;;;;;;;8.73;6.32;;;16.30;99.90;;;;;;4591372;19;20013;-25
2022/11/08 08:20:03;;;;;;;8.77;6.38;;;16.40;99.90;;;;;;4590298;19;20006;-24
2022/11/08 08:21:34;;;;;;;11.00;6.57;;;16.30;99.90;;;;;;4590387;19;20070;-25
2022/11/08 08:23:05;;;;;;;9.18;6.65;;;16.30;99.90;;;;;;4589361;19;20432;-25
2022/11/08 08:24:36;;;;;;;8.77;6.78;;;16.30;99.90;;;;;;4591260;19;20021;-26
2022/11/08 08:26:07;;;;;;;9.85;6.57;;;16.30;99.90;;;;;;4592251;19;20018;-24
2022/11/08 08:27:39;;;;;;;10.27;6.25;;;16.30;99.90;;;;;;4592662;19;20340;-24
2022/11/08 08:29:10;;;;;;;8.32;6.13;;;16.30;99.90;;;;;;4591143;19;20018;-24
2022/11/08 08:30:41;;;;;;;9.30;6.35;;;16.20;99.90;;;;;;4592120;19;20018;-23
2022/11/08 08:32:12;;;;;;;10.60;6.25;;;16.20;99.90;;;;;;4591112;19;20018;-26
2022/11/08 08:33:43;;;;;;;9.05;6.00;;;16.20;99.90;;;;;;4590254;19;20015;-24
2022/11/08 08:35:14;;;;;;;8.60;6.38;;;16.20;99.90;;;;;;4590725;19;20037;-24
2022/11/08 08:36:45;;;;;;;10.18;6.10;;;16.20;99.90;;;;;;4590656;19;20482;-25
2022/11/08 08:38:16;;;;;;;9.73;6.22;;;16.20;99.90;;;;;;4591351;19;20018;-24
2022/11/08 08:39:47;;;;;;;9.90;6.72;;;16.20;99.90;;;;;;4591713;19;20014;-24
2022/11/08 08:41:18;;;;;;;7.70;6.13;;;16.20;99.90;;;;;;4590356;19;20014;-24
2022/11/08 08:42:50;;;;;;;9.77;6.93;;;16.20;99.90;;;;;;4591121;19;20038;-24
2022/11/08 08:44:21;;;;;;;9.80;6.57;;;16.20;99.90;;;;;;4590685;19;20018;-24
2022/11/08 08:45:53;;;;;;;9.00;6.78;;;16.20;99.90;;;;;;4591774;19;20081;-27
2022/11/08 08:47:24;;;;;;;8.82;5.97;;;16.20;99.90;;;;;;4590776;19;20070;-24
2022/11/08 08:48:55;;;;;;;8.63;5.82;;;16.20;99.90;;;;;;4591519;19;20022;-23
2022/11/08 08:50:27;;;;;;;9.43;5.30;;;16.20;99.90;;;;;;4590616;19;20018;-23
2022/11/08 08:51:58;;;;;;;8.48;5.60;;;16.20;99.90;;;;;;4590582;19;20021;-24
2022/11/08 08:53:30;;;;;;;7.60;5.47;;;16.20;99.90;;;;;;4589834;19;20027;-25
2022/11/08 08:55:01;;;;;;;8.35;5.68;;;16.20;99.90;;;;;;4589737;19;20010;-26
2022/11/08 08:56:32;;;;;;;8.75;5.60;;;16.20;99.90;;;;;;4590990;19;20468;-24
2022/11/08 08:58:03;;;;;;;9.57;6.72;;;16.10;99.90;;;;;;4592231;19;20014;-27
2022/11/08 08:59:34;;;;;;;8.60;6.00;;;16.10;99.90;;;;;;4590843;19;20018;-29
2022/11/08 09:01:07;;;;;;;10.15;6.20;;;16.00;99.90;;;;;;4591233;19;20527;-26
2022/11/08 09:02:38;;;;;;;10.07;6.05;;;16.00;99.90;;;;;;4590014;19;20010;-27
2022/11/08 09:04:10;;;;;;;11.02;7.30;;;16.00;99.90;;;;;;4592287;19;20030;-25
2022/11/08 09:05:42;;;;;;;11.65;7.13;;;16.00;99.90;;;;;;4590450;19;20006;-24
2022/11/08 09:07:14;;;;;;;8.90;6.32;;;16.00;99.90;;;;;;4591855;19;20006;-24
2022/11/08 09:08:45;;;;;;;11.70;6.70;;;16.10;99.90;;;;;;4595207;19;20388;-25
2022/11/08 09:10:16;;;;;;;9.95;5.93;;;16.20;99.90;;;;;;4594386;19;20031;-24
2022/11/08 09:11:47;;;;;;;11.85;6.78;;;16.30;99.90;;;;;;4597390;19;20010;-23
2022/11/08 09:13:19;;;;;;;10.15;6.80;;;16.30;99.90;;;;;;4594612;19;20014;-26
2022/11/08 09:14:50;;;;;;;8.68;6.50;;;16.30;99.90;;;;;;4594889;19;20006;-24
2022/11/08 09:16:21;;;;;;;9.43;6.93;;;16.30;99.90;;;;;;4594415;19;20051;-24
2022/11/08 09:17:55;;;;;;;8.55;6.10;;;16.30;99.90;;;;;;4597228;19;20014;-25
2022/11/08 09:19:26;;;;;;;9.93;6.50;;;16.30;99.90;;;;;;4592951;19;20042;-24
2022/11/08 09:20:58;;;;;;;8.98;6.03;;;16.30;99.90;;;;;;4596339;19;20021;-24
2022/11/08 09:22:31;;;;;;;9.30;5.93;;;16.30;99.90;;;;;;4595156;19;20010;-25
2022/11/08 09:24:03;;;;;;;10.43;6.35;;;16.30;99.90;;;;;;4593164;19;20014;-23
2022/11/08 09:25:34;;;;;;;9.88;7.00;;;16.30;99.90;;;;;;4594019;19;20011;-24
2022/11/08 09:27:05;;;;;;;8.45;6.32;;;16.20;99.90;;;;;;4594766;19;20109;-23
2022/11/08 09:28:36;;;;;;;9.55;6.63;;;16.20;99.90;;;;;;4594818;19;20480;-23
2022/11/08 09:30:08;;;;;;;9.02;5.80;;;16.20;99.90;;;;;;4592965;19;20014;-23
2022/11/08 09:31:39;;;;;;;10.90;6.88;;;16.20;99.90;;;;;;4593443;19;20011;-24
2022/11/08 09:33:10;;;;;;;11.07;6.40;;;16.10;99.90;;;;;;4595117;19;20018;-23
2022/11/08 09:34:41;;;;;;;9.75;6.40;;;16.20;99.90;;;;;;4594527;19;20010;-24
2022/11/08 09:36:13;;;;;;;10.68;6.43;;;16.20;99.90;;;;;;4593924;19;20025;-24
2022/11/08 09:37:43;;;;;;;10.35;6.45;;;16.10;99.90;;;;;;4594484;19;20066;-23
2022/11/08 09:39:15;;;;;;;10.63;6.55;;;16.10;99.90;;;;;;4594869;19;20019;-23
2022/11/08 09:41:27;;;;;;;9.10;6.40;;;16.10;99.90;;;;;;4592985;19;20019;-25
2022/11/08 09:43:20;;;;;;;8.80;6.88;;;16.10;99.90;;;;;;4592586;19;20464;-24
2022/11/08 09:45:09;;;;;;;10.77;6.75;;;16.10;99.90;;;;;;4593716;19;20015;-25
2022/11/08 09:46:57;;;;;;;8.80;6.45;;;16.10;99.90;;;;;;4593881;19;20113;-24
2022/11/08 09:48:35;;;;;;;11.57;7.57;;;16.10;99.90;;;;;;4591645;19;20019;-24
2022/11/08 09:50:34;;;;;;;9.98;6.63;;;16.10;99.90;;;;;;4592433;19;20429;-23
2022/11/08 09:52:05;;;;;;;9.02;6.18;;;16.10;99.90;;;;;;4591338;19;20014;-24
2022/11/08 09:53:55;;;;;;;9.95;6.57;;;16.10;99.90;;;;;;4592647;19;20010;-24
2022/11/08 09:55:45;;;;;;;9.95;6.47;;;16.10;99.90;;;;;;4591392;19;20355;-24
2022/11/08 09:57:25;;;;;;;10.05;6.18;;;16.10;99.90;;;;;;4591168;19;20014;-24
2022/11/08 09:59:03;;;;;;;9.60;5.93;;;16.10;99.90;;;;;;4592164;19;20373;-25
2022/11/08 10:00:35;;;;;;;9.35;6.32;;;16.10;99.90;;;;;;4590805;19;20348;-23
2022/11/08 10:02:15;;;;;;;8.25;6.05;;;16.00;99.90;;;;;;4591711;19;20010;-23
2022/11/08 10:03:48;;;;;;;8.25;5.82;;;16.00;99.90;;;;;;4591598;19;20022;-24
2022/11/08 10:05:19;;;;;;;10.95;5.90;;;16.00;99.90;;;;;;4592012;19;20015;-24
2022/11/08 10:07:21;;;;;;;11.18;6.90;;;16.00;99.90;;;;;;4593258;19;20007;-23
2022/11/08 10:09:13;;;;;;;12.20;6.37;;;16.00;99.90;;;;;;4591569;19;20014;-24
2022/11/08 10:11:23;;;;;;;11.45;6.40;;;16.00;99.90;;;;;;4591162;19;20448;-24
2022/11/08 10:13:07;;;;;;;10.13;6.40;;;16.00;99.90;;;;;;4589588;19;20015;-28
2022/11/08 10:15:24;;;;;;;8.50;6.53;;;16.00;99.90;;;;;;4591267;19;20014;-27